Time;durP1;ratioP1;P1;durP2;ratioP2;P2;SDS_P1;SDS_P2;PMS_P1;PMS_P2;Temp;Humidity;BMP_temperature;BMP_pressure;BME280_temperature;BME280_humidity;BME280_pressure;Samples;Min_cycle;Max_cycle;Signal;HPM_P1;HPM_P2
2022/03/18 00:01:43;;;;;;;15.90;12.63;;;;;;;3.38;72.01;103833.03;4968441;28;20023;-61
2022/03/18 00:04:08;;;;;;;15.45;11.35;;;;;;;3.39;71.68;103829.63;4967817;28;20051;-59
2022/03/18 00:06:34;;;;;;;17.23;10.27;;;;;;;3.33;71.94;103839.91;4968362;28;20110;-60
2022/03/18 00:09:00;;;;;;;14.10;9.60;;;;;;;3.20;71.37;103839.91;4968365;28;20125;-59
2022/03/18 00:11:25;;;;;;;14.50;8.75;;;;;;;3.15;71.27;103835.66;4966301;28;20027;-61
2022/03/18 00:13:50;;;;;;;14.93;8.88;;;;;;;3.17;71.79;103837.38;4966377;28;20030;-60
2022/03/18 00:16:16;;;;;;;12.90;8.90;;;;;;;3.09;71.80;103840.78;4966570;28;20026;-60
2022/03/18 00:18:41;;;;;;;15.30;9.73;;;;;;;3.04;71.86;103842.50;4968447;28;20038;-59
2022/03/18 00:21:07;;;;;;;14.65;9.00;;;;;;;3.04;72.22;103838.25;4968184;28;20041;-61
2022/03/18 00:23:32;;;;;;;13.30;8.25;;;;;;;3.05;71.99;103839.97;4967939;28;20035;-59
2022/03/18 00:25:58;;;;;;;15.25;9.32;;;;;;;2.84;72.72;103839.97;4967670;28;20061;-60
2022/03/18 00:28:23;;;;;;;14.50;8.73;;;;;;;2.94;72.66;103836.56;4967717;28;20046;-60
2022/03/18 00:30:49;;;;;;;14.07;8.52;;;;;;;2.82;72.22;103841.69;4967813;28;20049;-60
2022/03/18 00:33:15;;;;;;;14.85;9.02;;;;;;;2.81;72.26;103847.66;4967636;28;20118;-60
2022/03/18 00:35:40;;;;;;;15.88;9.00;;;;;;;2.73;72.97;103846.81;4968268;28;20161;-59
2022/03/18 00:38:05;;;;;;;16.42;8.45;;;;;;;2.69;72.53;103850.22;4967846;28;20388;-60
2022/03/18 00:40:32;;;;;;;14.63;8.70;;;;;;;2.63;73.06;103862.19;4955111;28;20031;-59
2022/03/18 00:42:57;;;;;;;15.32;7.97;;;;;;;2.58;73.37;103858.78;4967576;28;20031;-60
2022/03/18 00:45:23;;;;;;;15.32;8.15;;;;;;;2.64;72.80;103871.59;4967861;28;20038;-60
2022/03/18 00:53:16;;;;;;;14.77;8.65;;;;;;;2.66;74.85;103876.72;4947911;29;20066;-59
2022/03/18 00:55:41;;;;;;;11.60;7.88;;;;;;;2.54;74.61;103882.69;4963532;28;20468;-67
2022/03/18 00:58:07;;;;;;;16.65;8.82;;;;;;;2.60;75.12;103877.56;4967605;28;20458;-62
2022/03/18 01:00:32;;;;;;;14.90;8.95;;;;;;;2.61;74.94;103883.53;4967214;28;20065;-61
2022/03/18 01:02:58;;;;;;;13.52;8.65;;;;;;;2.60;74.80;103887.81;4967956;28;20031;-60
2022/03/18 01:05:23;;;;;;;12.77;8.52;;;;;;;2.49;75.50;103879.25;4965352;28;20057;-64
2022/03/18 01:07:49;;;;;;;16.60;8.73;;;;;;;2.51;76.21;103898.03;4967551;28;20746;-62
2022/03/18 01:10:14;;;;;;;13.52;8.27;;;;;;;2.49;76.06;103897.19;4968022;28;20053;-62
2022/03/18 01:12:40;;;;;;;11.48;7.63;;;;;;;2.50;77.04;103891.22;4967805;28;20026;-60
2022/03/18 01:15:06;;;;;;;15.35;8.32;;;;;;;2.44;77.04;103890.34;4982610;28;20113;-59
2022/03/18 01:17:32;;;;;;;12.35;7.20;;;;;;;2.43;76.88;103889.50;4979872;28;20304;-59
2022/03/18 01:19:57;;;;;;;11.75;7.38;;;;;;;2.37;77.35;103892.06;4966924;28;20173;-59
2022/03/18 01:22:23;;;;;;;12.20;7.57;;;;;;;2.40;77.25;103890.34;4968724;28;20105;-59
2022/03/18 01:24:48;;;;;;;13.35;7.78;;;;;;;2.46;77.69;103889.50;4966601;28;20387;-59
2022/03/18 01:27:14;;;;;;;12.65;7.70;;;;;;;2.51;77.00;103898.03;4966799;28;20073;-61
2022/03/18 01:29:39;;;;;;;12.85;7.72;;;;;;;2.56;77.53;103893.78;4970782;28;20309;-63
2022/03/18 01:32:05;;;;;;;11.85;7.78;;;;;;;2.56;77.80;103892.94;4974350;28;20037;-59
2022/03/18 01:34:30;;;;;;;15.13;8.65;;;;;;;2.57;78.08;103877.56;4966100;28;20038;-60
2022/03/18 01:36:55;;;;;;;12.93;8.30;;;;;;;2.61;78.05;103863.91;4966703;28;20505;-59
2022/03/18 01:39:22;;;;;;;12.90;8.20;;;;;;;2.60;77.73;103867.31;4962860;28;20359;-59
2022/03/18 01:41:48;;;;;;;12.10;8.15;;;;;;;2.61;78.43;103866.47;4967223;28;20085;-59
2022/03/18 01:44:13;;;;;;;11.45;7.85;;;;;;;2.62;77.93;103865.59;4966370;28;20422;-61
2022/03/18 01:46:39;;;;;;;11.63;7.95;;;;;;;2.67;77.95;103869.03;4967605;28;20211;-59
2022/03/18 01:49:06;;;;;;;11.68;7.82;;;;;;;2.52;77.66;103879.25;4963835;28;20047;-59
2022/03/18 01:51:33;;;;;;;12.57;7.43;;;;;;;2.49;77.21;103869.03;4964617;28;20042;-60
2022/03/18 01:56:43;;;;;;;12.10;7.50;;;;;;;2.38;77.51;103891.19;4967119;28;20517;-61
2022/03/18 01:59:11;;;;;;;12.80;7.68;;;;;;;2.40;78.00;103892.06;4966444;28;20031;-59
2022/03/18 02:01:37;;;;;;;12.45;7.93;;;;;;;2.43;78.37;103897.19;4968224;28;20054;-59
2022/03/18 02:04:02;;;;;;;13.70;8.18;;;;;;;2.38;77.83;103896.31;4970323;28;20383;-59
2022/03/18 02:06:28;;;;;;;13.52;8.18;;;;;;;2.37;78.15;103904.88;4969612;28;20398;-60
2022/03/18 02:08:54;;;;;;;11.02;7.85;;;;;;;2.32;78.51;103906.56;4970557;28;20041;-59
2022/03/18 02:11:19;;;;;;;11.70;7.78;;;;;;;2.41;77.82;103891.22;4969787;28;20027;-60
2022/03/18 02:13:49;;;;;;;14.55;8.93;;;;;;;2.37;78.86;103894.63;4968772;28;20498;-59
2022/03/18 02:16:14;;;;;;;14.23;8.68;;;;;;;2.39;79.16;103888.63;4969639;28;20026;-59
2022/03/18 02:18:39;;;;;;;13.15;8.90;;;;;;;2.39;78.74;103887.78;4970431;28;20050;-60
2022/03/18 02:21:05;;;;;;;12.80;8.07;;;;;;;2.36;78.33;103900.59;4975872;28;20029;-59
2022/03/18 02:23:30;;;;;;;10.90;7.43;;;;;;;2.20;77.55;103902.25;4985697;28;20026;-59
2022/03/18 02:25:56;;;;;;;13.20;7.28;;;;;;;2.24;78.67;103921.06;4970261;28;20432;-60
2022/03/18 02:28:21;;;;;;;12.57;7.70;;;;;;;2.26;80.23;103916.78;4969722;28;20031;-60
2022/03/18 02:30:46;;;;;;;11.93;8.07;;;;;;;2.20;81.09;103921.91;4969974;28;20061;-59
2022/03/18 02:33:12;;;;;;;11.52;7.88;;;;;;;2.22;80.18;103910.78;4969264;28;20027;-60
2022/03/18 02:35:40;;;;;;;12.77;8.00;;;;;;;2.19;80.95;103909.94;4965401;28;20436;-60
2022/03/18 02:38:05;;;;;;;11.35;7.32;;;;;;;2.21;81.34;103908.22;4967756;28;20113;-59
2022/03/18 02:40:31;;;;;;;12.35;7.57;;;;;;;2.21;80.55;103908.22;4969159;28;20290;-59
2022/03/18 02:42:58;;;;;;;11.90;7.03;;;;;;;2.17;80.34;103907.34;4970160;28;20034;-61
2022/03/18 02:45:23;;;;;;;10.68;6.82;;;;;;;2.22;80.80;103905.66;4969073;28;20031;-61
2022/03/18 02:47:48;;;;;;;10.93;6.95;;;;;;;2.18;79.93;103903.09;4968003;28;20358;-60
2022/03/18 02:50:15;;;;;;;12.10;7.55;;;;;;;2.08;80.40;103915.88;4969056;28;20110;-59
2022/03/18 02:52:41;;;;;;;11.68;7.13;;;;;;;2.05;80.01;103913.28;4969814;28;20031;-59
2022/03/18 02:55:07;;;;;;;11.43;6.80;;;;;;;2.02;79.91;103918.41;4969336;28;20562;-60
2022/03/18 02:57:33;;;;;;;11.73;7.00;;;;;;;2.00;80.59;103914.97;4969141;28;20113;-60
2022/03/18 02:59:59;;;;;;;13.07;7.65;;;;;;;2.00;81.59;103922.66;4969065;28;20027;-61
2022/03/18 03:02:25;;;;;;;12.15;7.78;;;;;;;2.04;81.49;103921.81;4967306;28;20483;-60
2022/03/18 03:10:18;;;;;;;12.35;8.27;;;;;;;2.05;82.35;103928.66;4968429;28;20466;-61
2022/03/18 03:12:44;;;;;;;12.15;8.10;;;;;;;2.12;81.93;103920.16;4967576;28;20031;-60
2022/03/18 03:15:10;;;;;;;11.60;8.10;;;;;;;2.11;81.42;103927.81;4968823;28;20110;-60
2022/03/18 03:17:35;;;;;;;12.85;7.47;;;;;;;2.06;81.72;103930.34;4968594;28;20030;-60
2022/03/18 03:20:01;;;;;;;11.40;7.40;;;;;;;2.07;81.84;103932.09;4968653;28;20042;-61
2022/03/18 03:22:30;;;;;;;10.63;7.28;;;;;;;2.03;80.84;103950.00;4985426;28;20073;-60
2022/03/18 03:24:56;;;;;;;12.02;7.32;;;;;;;1.91;80.10;103940.56;4978126;28;20427;-60
2022/03/18 03:27:22;;;;;;;10.70;7.70;;;;;;;1.93;80.36;103938.84;4967286;28;20066;-60
2022/03/18 03:29:48;;;;;;;11.82;7.93;;;;;;;1.93;80.43;103943.97;4968766;28;20592;-61
2022/03/18 03:32:14;;;;;;;11.88;7.88;;;;;;;1.83;81.05;103947.31;4968587;28;20031;-61
2022/03/18 03:34:40;;;;;;;13.20;7.57;;;;;;;1.86;80.17;103952.47;4968359;28;20480;-63
2022/03/18 03:37:06;;;;;;;12.90;8.02;;;;;;;1.86;80.73;103947.34;4968552;28;20135;-62
2022/03/18 03:39:31;;;;;;;12.50;7.72;;;;;;;1.87;80.50;103949.06;4968744;28;20023;-59
2022/03/18 03:41:56;;;;;;;12.00;7.57;;;;;;;1.90;80.95;103958.47;4968238;28;20067;-61
2022/03/18 03:44:22;;;;;;;11.90;8.00;;;;;;;1.89;80.15;103962.69;4967905;28;20049;-61
2022/03/18 03:46:47;;;;;;;12.32;8.10;;;;;;;1.85;80.25;103966.97;4968610;28;20022;-60
2022/03/18 03:49:13;;;;;;;12.65;7.80;;;;;;;1.79;79.94;103977.19;4968181;28;20030;-60
2022/03/18 03:51:39;;;;;;;12.60;7.40;;;;;;;1.68;79.02;103973.69;4968572;28;20564;-61
2022/03/18 03:54:04;;;;;;;11.98;7.90;;;;;;;1.55;79.34;103972.78;4966383;28;20030;-61
2022/03/18 03:56:30;;;;;;;12.82;7.57;;;;;;;1.64;79.67;103976.22;4968200;28;20276;-60
2022/03/18 03:58:55;;;;;;;11.93;8.02;;;;;;;1.63;80.38;103980.47;4966944;28;20062;-60
2022/03/18 04:01:20;;;;;;;14.95;8.70;;;;;;;1.65;80.61;103976.22;4966158;28;20504;-61
2022/03/18 04:03:47;;;;;;;13.43;8.13;;;;;;;1.68;80.20;103977.97;4966694;28;20419;-60
2022/03/18 04:06:13;;;;;;;12.75;8.18;;;;;;;1.69;80.28;103974.56;4965751;28;20056;-60
2022/03/18 04:08:39;;;;;;;14.48;8.52;;;;;;;1.74;79.63;103983.13;4967971;28;20027;-60
2022/03/18 04:11:04;;;;;;;12.00;8.23;;;;;;;1.65;80.61;103988.16;4967504;28;20062;-60
2022/03/18 04:13:30;;;;;;;11.43;7.82;;;;;;;1.59;79.43;103981.31;4967692;28;20100;-61
2022/03/18 04:15:55;;;;;;;13.63;8.23;;;;;;;1.63;79.57;103989.88;4967874;28;20034;-60
2022/03/18 04:18:20;;;;;;;12.48;8.55;;;;;;;1.65;80.23;103993.28;4967154;28;20030;-60
2022/03/18 04:20:46;;;;;;;13.15;8.10;;;;;;;1.67;79.98;103997.56;4972253;28;20026;-60
2022/03/18 04:23:12;;;;;;;13.05;8.32;;;;;;;1.69;79.76;103998.44;4977189;28;20201;-59
2022/03/18 04:25:38;;;;;;;13.13;8.30;;;;;;;1.67;80.33;104002.69;4967266;28;20018;-60
2022/03/18 04:28:03;;;;;;;11.38;8.30;;;;;;;1.66;80.49;103997.53;4967879;28;20030;-60
2022/03/18 04:30:29;;;;;;;11.80;8.05;;;;;;;1.53;80.48;103977.00;4967622;28;20041;-60
2022/03/18 04:32:54;;;;;;;12.82;7.57;;;;;;;1.68;80.03;103998.44;4967875;28;20554;-61
2022/03/18 04:35:20;;;;;;;10.45;7.55;;;;;;;1.59;80.66;103989.81;4967790;28;20306;-61
2022/03/18 04:37:45;;;;;;;10.15;7.07;;;;;;;1.68;80.63;103995.88;4968270;28;20031;-60
2022/03/18 04:40:12;;;;;;;11.68;8.05;;;;;;;1.61;80.49;104002.66;4967473;28;20118;-62
2022/03/18 04:42:38;;;;;;;11.27;7.80;;;;;;;1.52;80.46;103997.47;4966470;28;20798;-60
2022/03/18 04:45:04;;;;;;;11.07;7.22;;;;;;;1.55;80.45;104000.06;4967450;28;20030;-60
2022/03/18 04:47:30;;;;;;;12.48;7.47;;;;;;;1.50;80.55;104007.69;4955354;28;20035;-60
2022/03/18 04:49:56;;;;;;;14.77;7.78;;;;;;;1.43;80.12;104013.56;4956443;28;20034;-61
2022/03/18 04:52:21;;;;;;;10.95;7.68;;;;;;;1.47;80.48;104009.34;4948534;28;20023;-60
2022/03/18 04:54:46;;;;;;;11.68;7.68;;;;;;;1.48;80.18;104011.06;4950693;28;20106;-63
2022/03/18 04:57:22;;;;;;;14.05;8.02;;;;;;;1.47;80.01;104015.31;4948281;28;20490;-60
2022/03/18 04:59:49;;;;;;;14.57;9.15;;;;;;;1.46;80.16;104021.28;4957185;28;20026;-62
2022/03/18 05:02:16;;;;;;;16.35;11.07;;;;;;;1.46;80.02;104028.97;4955667;28;20038;-61
2022/03/18 05:04:42;;;;;;;17.13;11.30;;;;;;;1.44;79.99;104033.22;4950450;28;20627;-62
2022/03/18 05:07:08;;;;;;;15.50;10.77;;;;;;;1.36;79.92;104022.06;4950171;28;20042;-61
2022/03/18 05:09:34;;;;;;;17.30;11.05;;;;;;;1.29;80.41;104045.88;4948943;28;20031;-59
2022/03/18 05:11:59;;;;;;;14.52;10.77;;;;;;;1.27;80.16;104037.34;4954824;28;20120;-60
2022/03/18 05:14:25;;;;;;;17.23;10.15;;;;;;;1.27;80.17;104029.66;4949292;28;20110;-60
2022/03/18 05:16:51;;;;;;;17.25;10.13;;;;;;;1.32;80.22;104051.03;4957338;28;20031;-60
2022/03/18 05:19:16;;;;;;;12.02;9.05;;;;;;;1.34;80.72;104054.44;4960725;28;20030;-60
2022/03/18 05:21:42;;;;;;;13.73;8.45;;;;;;;1.29;80.39;104051.84;4978851;28;20041;-60
2022/03/18 05:24:09;;;;;;;13.48;8.82;;;;;;;1.33;80.47;104052.72;4960711;28;20019;-61
2022/03/18 05:26:36;;;;;;;12.85;8.13;;;;;;;1.33;80.57;104045.91;4950411;28;20107;-60
2022/03/18 05:29:03;;;;;;;11.50;8.27;;;;;;;1.35;80.95;104051.03;4967251;28;20033;-60
2022/03/18 05:31:31;;;;;;;13.63;8.48;;;;;;;1.34;81.05;104051.88;4957333;28;20031;-60
2022/03/18 05:33:56;;;;;;;13.85;8.27;;;;;;;1.33;81.21;104057.84;4952068;28;20427;-60
2022/03/18 05:36:22;;;;;;;11.68;8.02;;;;;;;1.29;80.99;104043.31;4970547;28;20035;-60
2022/03/18 05:38:47;;;;;;;14.40;9.05;;;;;;;1.30;81.51;104037.34;4979500;28;20031;-61
2022/03/18 05:41:13;;;;;;;13.95;8.55;;;;;;;1.31;81.47;104049.28;4971432;28;20069;-60
2022/03/18 05:43:39;;;;;;;12.02;8.65;;;;;;;1.30;80.85;104045.03;4971406;28;20565;-60
2022/03/18 05:46:05;;;;;;;13.13;8.90;;;;;;;1.32;81.26;104044.19;4970514;28;20026;-60
2022/03/18 05:48:30;;;;;;;14.10;10.13;;;;;;;1.28;81.86;104047.56;4971722;28;20364;-60
2022/03/18 05:50:55;;;;;;;14.40;9.57;;;;;;;1.33;81.58;104062.97;4970466;28;20054;-61
2022/03/18 05:53:21;;;;;;;12.68;9.32;;;;;;;1.21;81.79;104067.97;4970021;28;20356;-60
2022/03/18 05:58:31;;;;;;;14.35;9.27;;;;;;;1.26;81.18;104066.28;4970593;28;20399;-59
2022/03/18 06:00:56;;;;;;;15.80;9.85;;;;;;;1.28;81.77;104075.69;4969181;28;20031;-60
2022/03/18 06:03:22;;;;;;;16.05;9.82;;;;;;;1.29;82.20;104089.34;4971143;28;20110;-62
2022/03/18 06:05:47;;;;;;;16.75;10.23;;;;;;;1.20;81.98;104084.13;4968957;28;20101;-60
2022/03/18 06:13:40;;;;;;;15.48;9.20;;;;;;;1.15;82.15;104088.31;4956275;28;20038;-60
2022/03/18 06:16:06;;;;;;;16.55;9.38;;;;;;;1.17;82.29;104102.00;4954317;28;20031;-64
2022/03/18 06:18:32;;;;;;;15.73;9.05;;;;;;;1.20;82.57;104091.78;4951746;28;20077;-60
2022/03/18 06:20:59;;;;;;;15.95;9.05;;;;;;;1.22;82.11;104095.25;4954792;28;20063;-60
2022/03/18 06:23:25;;;;;;;13.40;9.73;;;;;;;1.21;82.05;104101.19;4956431;28;20034;-60
2022/03/18 06:25:50;;;;;;;13.10;8.50;;;;;;;1.24;82.03;104103.78;4954053;28;20019;-60
2022/03/18 06:28:16;;;;;;;14.27;8.98;;;;;;;1.28;82.02;104115.75;4950875;28;20102;-60
2022/03/18 06:30:41;;;;;;;12.63;9.50;;;;;;;1.31;82.36;104119.19;4952795;28;20024;-63
2022/03/18 06:33:07;;;;;;;14.82;9.93;;;;;;;1.32;82.47;104122.63;4954834;28;20090;-62
2022/03/18 06:35:32;;;;;;;15.27;10.02;;;;;;;1.29;82.60;104122.56;4966009;28;20053;-60
2022/03/18 06:37:58;;;;;;;13.68;9.30;;;;;;;1.29;82.24;104127.69;4970124;28;20034;-59
2022/03/18 06:40:23;;;;;;;14.25;9.98;;;;;;;1.30;82.69;104129.41;4961207;28;20027;-64
2022/03/18 06:42:49;;;;;;;14.73;10.30;;;;;;;1.32;82.82;104123.47;4953574;28;20424;-64
2022/03/18 06:45:14;;;;;;;15.13;11.25;;;;;;;1.41;83.22;104127.81;4959366;28;20030;-60
2022/03/18 06:47:39;;;;;;;15.85;12.93;;;;;;;1.43;83.14;104123.56;4958362;28;20023;-59
2022/03/18 06:50:05;;;;;;;18.88;14.77;;;;;;;1.50;83.37;104127.91;4954165;28;20432;-60
2022/03/18 06:52:31;;;;;;;19.48;15.05;;;;;;;1.57;82.76;104128.81;4951109;28;20603;-62
2022/03/18 06:54:56;;;;;;;19.60;14.95;;;;;;;1.64;83.47;104145.06;4963416;28;20418;-60
2022/03/18 06:57:22;;;;;;;19.73;15.23;;;;;;;1.66;83.28;104140.81;4969431;28;20047;-63
2022/03/18 06:59:47;;;;;;;22.00;14.80;;;;;;;1.76;82.99;104146.03;4959673;28;20039;-65
2022/03/18 07:02:15;;;;;;;18.00;14.63;;;;;;;1.81;82.49;104138.41;4952593;28;20456;-61
2022/03/18 07:04:41;;;;;;;18.83;14.18;;;;;;;1.87;83.03;104141.00;4953371;28;20051;-61
2022/03/18 07:07:06;;;;;;;17.92;13.38;;;;;;;1.91;82.49;104150.44;4966407;28;20475;-61
2022/03/18 07:09:32;;;;;;;17.98;14.30;;;;;;;1.96;82.52;104151.34;4970366;28;20082;-60
2022/03/18 07:11:57;;;;;;;21.42;16.35;;;;;;;1.99;83.00;104159.03;4969698;28;20018;-60
2022/03/18 07:14:23;;;;;;;21.20;16.15;;;;;;;2.05;83.03;104151.38;4969314;28;20370;-60
2022/03/18 07:19:33;;;;;;;21.00;13.32;;;;;;;2.21;82.64;104159.19;4953629;28;20034;-61
2022/03/18 07:21:58;;;;;;;15.75;13.30;;;;;;;2.33;82.83;104164.38;4953721;28;20034;-65
2022/03/18 07:24:23;;;;;;;18.40;12.63;;;;;;;2.39;82.35;104183.22;4969156;28;20063;-61
2022/03/18 07:26:49;;;;;;;15.95;12.60;;;;;;;2.49;81.62;104176.44;4969324;28;20041;-61
2022/03/18 07:29:14;;;;;;;16.92;12.43;;;;;;;2.56;82.57;104182.47;4968497;28;20039;-67
2022/03/18 07:31:39;;;;;;;17.38;12.50;;;;;;;2.60;81.86;104182.50;4968599;28;20141;-60
2022/03/18 07:34:05;;;;;;;17.75;12.80;;;;;;;2.74;82.16;104186.84;4968184;28;20035;-60
2022/03/18 07:36:30;;;;;;;16.38;12.05;;;;;;;2.80;82.05;104202.25;4969311;28;20070;-60
2022/03/18 07:38:56;;;;;;;18.17;11.80;;;;;;;2.86;82.00;104202.28;4967949;28;20105;-60
2022/03/18 07:41:21;;;;;;;16.52;12.82;;;;;;;2.98;83.10;104202.31;4968702;28;20402;-60
2022/03/18 07:43:46;;;;;;;16.65;12.82;;;;;;;3.05;82.99;104185.28;4969356;28;20133;-64
2022/03/18 07:46:12;;;;;;;19.48;12.68;;;;;;;3.24;83.16;104184.47;4969257;28;20039;-60
2022/03/18 07:48:40;;;;;;;19.42;13.00;;;;;;;3.35;82.10;104197.34;4969304;28;20386;-61
2022/03/18 07:51:05;;;;;;;20.55;13.00;;;;;;;3.47;82.83;104197.38;4968647;28;20034;-62
2022/03/18 07:53:31;;;;;;;18.35;12.18;;;;;;;3.57;82.08;104183.72;4952913;28;20027;-61
2022/03/18 07:55:56;;;;;;;20.33;13.43;;;;;;;3.69;82.93;104194.00;4952166;28;20078;-59
2022/03/18 07:58:22;;;;;;;20.23;13.13;;;;;;;3.81;82.88;104192.31;4952711;28;20579;-64
2022/03/18 08:00:47;;;;;;;19.50;13.40;;;;;;;3.90;82.43;104192.28;4954312;28;20149;-63
2022/03/18 08:03:12;;;;;;;18.17;13.68;;;;;;;4.02;82.38;104202.59;4966360;28;20030;-60
2022/03/18 08:05:39;;;;;;;17.35;12.50;;;;;;;4.16;82.59;104213.69;4947842;28;20514;-62
2022/03/18 08:08:05;;;;;;;21.88;13.15;;;;;;;4.25;82.48;104210.28;4949924;28;20093;-61
2022/03/18 08:10:31;;;;;;;22.27;13.70;;;;;;;4.39;81.45;104215.41;4965831;28;20455;-60
2022/03/18 08:12:57;;;;;;;20.25;13.27;;;;;;;4.45;81.64;104208.53;4952143;28;20035;-61
2022/03/18 08:15:24;;;;;;;18.63;13.00;;;;;;;4.72;82.03;104220.47;4968484;28;20642;-62
2022/03/18 08:17:52;;;;;;;18.83;13.13;;;;;;;4.82;81.33;104223.91;4968439;28;20042;-62
2022/03/18 08:20:18;;;;;;;17.80;12.35;;;;;;;4.93;80.93;104231.56;4969065;28;20054;-61
2022/03/18 08:22:43;;;;;;;17.27;12.00;;;;;;;5.01;79.43;104235.81;4978149;28;20037;-60
2022/03/18 08:25:10;;;;;;;18.25;11.77;;;;;;;5.04;78.59;104235.81;4968381;28;20023;-61
2022/03/18 08:27:35;;;;;;;20.75;11.40;;;;;;;5.19;78.48;104240.03;4968014;28;20030;-60
2022/03/18 08:30:04;;;;;;;15.50;10.63;;;;;;;5.31;78.04;104239.97;4968447;28;20042;-60
2022/03/18 08:32:29;;;;;;;18.38;11.00;;;;;;;5.46;78.39;104243.38;4968095;28;20150;-60
2022/03/18 08:34:57;;;;;;;19.60;11.20;;;;;;;5.63;78.37;104251.00;4967824;28;20511;-63
2022/03/18 08:40:08;;;;;;;15.07;8.30;;;;;;;5.84;76.51;104262.00;4968729;28;20065;-60
2022/03/18 08:42:35;;;;;;;18.17;8.50;;;;;;;6.00;74.89;104257.63;4967723;28;20023;-60
2022/03/18 08:45:02;;;;;;;13.30;8.48;;;;;;;6.02;74.45;104273.06;4967811;28;20034;-61
2022/03/18 08:47:27;;;;;;;15.85;7.82;;;;;;;6.15;73.89;104266.97;4967751;28;20121;-62
2022/03/18 08:49:53;;;;;;;14.77;7.90;;;;;;;6.24;73.37;104266.03;4967635;28;20511;-60
2022/03/18 08:52:18;;;;;;;11.02;7.13;;;;;;;6.31;72.19;104273.72;4960566;28;20527;-60
2022/03/18 08:54:44;;;;;;;12.02;6.78;;;;;;;6.52;72.15;104277.81;4953550;28;20022;-61
2022/03/18 08:57:10;;;;;;;16.58;6.88;;;;;;;6.55;70.56;104276.94;4967771;28;20031;-62
2022/03/18 08:59:36;;;;;;;12.55;6.47;;;;;;;6.63;70.96;104285.47;4967959;28;20039;-62
2022/03/18 09:02:01;;;;;;;11.68;6.00;;;;;;;6.63;70.19;104281.16;4967825;28;20656;-61
2022/03/18 09:04:27;;;;;;;12.43;5.00;;;;;;;6.76;67.57;104289.63;4966800;28;20499;-63
2022/03/18 09:06:52;;;;;;;12.05;5.70;;;;;;;6.88;69.28;104286.94;4967646;28;20034;-61
2022/03/18 09:09:17;;;;;;;11.25;5.00;;;;;;;7.00;67.90;104295.44;4966203;28;20018;-60
2022/03/18 09:11:43;;;;;;;13.07;5.20;;;;;;;7.06;66.57;104291.03;4967098;28;20046;-64
2022/03/18 09:14:10;;;;;;;11.20;5.05;;;;;;;7.32;65.70;104290.72;4962809;28;20226;-62
2022/03/18 09:16:37;;;;;;;9.65;3.90;;;;;;;7.33;62.36;104295.00;4959526;28;20420;-60
2022/03/18 09:19:07;;;;;;;11.75;5.18;;;;;;;7.40;62.92;104296.66;4967484;28;20035;-62
2022/03/18 09:21:32;;;;;;;11.52;4.10;;;;;;;7.47;61.35;104302.59;4968560;28;20360;-63
2022/03/18 09:23:58;;;;;;;9.98;4.38;;;;;;;7.57;62.90;104303.31;4967637;28;20470;-65
2022/03/18 09:26:24;;;;;;;10.60;4.32;;;;;;;7.82;62.71;104299.53;4961435;28;20463;-61
2022/03/18 09:28:49;;;;;;;10.65;4.57;;;;;;;7.84;61.93;104302.94;4967454;28;20550;-61
2022/03/18 09:31:15;;;;;;;10.30;4.50;;;;;;;7.94;61.74;104299.34;4966295;28;20034;-60
2022/03/18 09:33:43;;;;;;;11.10;4.97;;;;;;;8.15;62.83;104302.50;4967007;28;20035;-68
2022/03/18 09:36:14;;;;;;;11.70;4.38;;;;;;;8.22;61.40;104298.94;4965670;28;20039;-60
2022/03/18 09:38:41;;;;;;;10.93;4.57;;;;;;;8.25;60.45;104304.88;4966439;28;20917;-60
2022/03/18 09:41:07;;;;;;;10.50;4.35;;;;;;;8.36;59.66;104306.50;4966892;28;20035;-61
2022/03/18 09:43:34;;;;;;;12.52;4.20;;;;;;;8.40;59.89;104313.31;4966896;28;20047;-60
2022/03/18 09:46:05;;;;;;;9.30;4.50;;;;;;;8.44;60.51;104315.84;4965940;28;20037;-63
2022/03/18 09:48:31;;;;;;;10.02;4.40;;;;;;;8.49;59.96;104314.03;4966626;28;20124;-60
2022/03/18 09:50:57;;;;;;;10.43;4.78;;;;;;;8.48;60.11;104312.31;4966307;28;20796;-60
2022/03/18 09:53:23;;;;;;;10.30;4.53;;;;;;;8.72;62.14;104325.72;4965868;28;20268;-63
2022/03/18 09:55:51;;;;;;;11.93;5.10;;;;;;;8.78;60.09;104334.22;4957261;28;20034;-61
2022/03/18 09:58:21;;;;;;;11.48;5.03;;;;;;;8.97;60.20;104332.16;4949052;28;20081;-61
2022/03/18 10:00:47;;;;;;;13.15;5.57;;;;;;;9.09;59.56;104330.22;4967114;28;20315;-60
2022/03/18 10:03:16;;;;;;;10.48;5.10;;;;;;;9.22;59.82;104336.84;4963223;28;20420;-61
2022/03/18 10:06:00;;;;;;;10.40;4.93;;;;;;;9.27;57.82;104335.03;4962898;28;20039;-60
2022/03/18 10:08:49;;;;;;;11.40;4.68;;;;;;;9.39;59.38;104332.19;4949911;28;20030;-65
2022/03/18 10:11:19;;;;;;;9.50;4.55;;;;;;;9.45;56.98;104339.81;4952823;28;20027;-60
2022/03/18 10:14:02;;;;;;;11.05;5.05;;;;;;;9.57;57.46;104336.97;4948059;28;20039;-63
2022/03/18 10:16:37;;;;;;;9.35;4.43;;;;;;;9.62;56.93;104336.88;4948199;28;20039;-61
2022/03/18 10:19:09;;;;;;;9.25;4.40;;;;;;;9.80;56.67;104340.81;4948926;28;20031;-63
2022/03/18 10:21:53;;;;;;;12.10;4.47;;;;;;;9.82;57.72;104336.47;4960755;28;20031;-60
2022/03/18 10:24:23;;;;;;;11.23;4.53;;;;;;;9.89;56.78;104340.63;4969315;28;20038;-62
2022/03/18 10:26:50;;;;;;;11.75;4.50;;;;;;;9.88;55.24;104328.56;4967137;28;20030;-61
2022/03/18 10:29:16;;;;;;;11.02;4.10;;;;;;;9.96;54.65;104330.97;4968322;28;20041;-60
2022/03/18 10:31:59;;;;;;;9.60;3.60;;;;;;;10.06;55.49;104327.28;4970339;28;20031;-60
2022/03/18 10:37:22;;;;;;;8.00;3.42;;;;;;;10.17;53.00;104334.81;4964690;28;20462;-61
2022/03/18 10:39:50;;;;;;;9.52;3.50;;;;;;;10.19;53.90;104333.00;4970286;28;20471;-69
2022/03/18 10:42:17;;;;;;;9.57;3.60;;;;;;;10.26;53.47;104334.59;4970189;28;20035;-61
2022/03/18 10:44:55;;;;;;;9.27;3.60;;;;;;;10.31;53.47;104330.16;4970011;28;20019;-64
2022/03/18 10:47:36;;;;;;;7.78;3.72;;;;;;;10.46;53.92;104327.19;4970096;28;20066;-64
2022/03/18 10:50:10;;;;;;;9.30;3.92;;;;;;;10.50;53.47;104339.22;4969827;28;20494;-63
2022/03/18 10:52:40;;;;;;;9.93;4.00;;;;;;;10.53;53.54;104336.50;4969942;28;20035;-60
2022/03/18 10:55:19;;;;;;;12.63;4.40;;;;;;;10.61;53.39;104341.53;4952966;28;20118;-65
2022/03/18 10:58:10;;;;;;;8.85;3.88;;;;;;;10.69;54.34;104346.53;4961438;28;20395;-62
2022/03/18 11:00:38;;;;;;;9.68;3.92;;;;;;;10.63;52.00;104348.38;4968295;28;20023;-60
2022/03/18 11:03:05;;;;;;;10.40;3.90;;;;;;;10.66;52.98;104350.03;4958456;28;20255;-64
2022/03/18 11:05:36;;;;;;;9.52;3.90;;;;;;;10.69;53.16;104354.31;4968637;28;20051;-66
2022/03/18 11:08:04;;;;;;;7.97;3.67;;;;;;;10.72;52.50;104354.22;4968424;28;20109;-62
2022/03/18 11:13:15;;;;;;;9.25;4.20;;;;;;;10.86;53.66;104346.94;4970301;28;20202;-60
2022/03/18 11:15:43;;;;;;;7.82;4.07;;;;;;;10.93;53.40;104351.06;4970397;28;20038;-61
2022/03/18 11:18:11;;;;;;;10.27;4.47;;;;;;;10.94;53.12;104344.97;4969496;28;20114;-62
2022/03/18 11:20:42;;;;;;;11.13;4.43;;;;;;;11.05;52.60;104353.31;4962920;28;20026;-61
2022/03/18 11:23:18;;;;;;;9.43;4.38;;;;;;;11.09;52.55;104339.38;4969592;28;20043;-60
2022/03/18 11:25:48;;;;;;;11.07;4.47;;;;;;;11.13;52.98;104341.00;4969470;28;20027;-62
2022/03/18 11:28:15;;;;;;;11.35;4.43;;;;;;;11.10;52.32;104335.88;4969873;28;20033;-61
2022/03/18 11:30:41;;;;;;;9.30;4.38;;;;;;;11.21;53.15;104337.31;4969708;28;20118;-65
2022/03/18 11:33:10;;;;;;;11.68;4.50;;;;;;;11.30;52.71;104337.06;4961170;28;20038;-61
2022/03/18 11:35:47;;;;;;;;;;;;;;;11.40;54.36;104338.50;4968531;28;20487;-65
2022/03/18 11:38:14;;;;;;;12.52;4.63;;;;;;;11.48;52.65;104333.09;4969415;28;20005;-61
2022/03/18 11:41:02;;;;;;;9.80;4.55;;;;;;;11.57;53.47;104331.03;4964102;28;20056;-64
2022/03/18 11:43:28;;;;;;;12.80;4.68;;;;;;;11.62;52.24;104338.72;4952784;28;20471;-63
2022/03/18 11:46:16;;;;;;;9.70;4.65;;;;;;;11.68;52.78;104338.53;4951855;28;20026;-61
2022/03/18 11:48:49;;;;;;;10.07;4.55;;;;;;;11.73;51.74;104335.78;4957450;28;20027;-61
2022/03/18 11:51:33;;;;;;;11.23;4.38;;;;;;;11.86;53.21;104334.53;4950747;28;20062;-64
2022/03/18 11:54:00;;;;;;;11.25;4.60;;;;;;;11.89;52.03;104337.06;4949063;28;20031;-61
2022/03/18 11:56:44;;;;;;;10.88;4.55;;;;;;;11.98;52.93;104331.56;4947874;28;20810;-62